sensor_id;sensor_type;location;lat;lon;timestamp;P1;durP1;ratioP1;P2;durP2;ratioP2
76604;SDS011;73179;50.978;16.998;2024-01-15T00:00:44;14.88;;;8.75;;
76604;SDS011;73179;50.978;16.998;2024-01-15T00:03:30;13.50;;;8.40;;
76604;SDS011;73179;50.978;16.998;2024-01-15T00:05:56;13.95;;;9.02;;
76604;SDS011;73179;50.978;16.998;2024-01-15T00:08:22;14.13;;;8.23;;
76604;SDS011;73179;50.978;16.998;2024-01-15T00:10:48;15.57;;;9.20;;
76604;SDS011;73179;50.978;16.998;2024-01-15T00:13:14;12.20;;;7.05;;
76604;SDS011;73179;50.978;16.998;2024-01-15T00:15:40;13.88;;;8.45;;
76604;SDS011;73179;50.978;16.998;2024-01-15T00:18:06;12.43;;;7.45;;
76604;SDS011;73179;50.978;16.998;2024-01-15T00:20:32;13.57;;;8.05;;
76604;SDS011;73179;50.978;16.998;2024-01-15T00:22:58;12.60;;;7.43;;
76604;SDS011;73179;50.978;16.998;2024-01-15T00:25:24;12.02;;;7.45;;
76604;SDS011;73179;50.978;16.998;2024-01-15T00:27:50;11.73;;;6.50;;
76604;SDS011;73179;50.978;16.998;2024-01-15T00:30:16;12.15;;;7.10;;
76604;SDS011;73179;50.978;16.998;2024-01-15T00:32:43;11.65;;;6.93;;
76604;SDS011;73179;50.978;16.998;2024-01-15T00:35:09;13.45;;;7.85;;
76604;SDS011;73179;50.978;16.998;2024-01-15T00:37:35;13.32;;;7.97;;
76604;SDS011;73179;50.978;16.998;2024-01-15T00:40:01;12.57;;;7.78;;
76604;SDS011;73179;50.978;16.998;2024-01-15T00:42:27;12.65;;;8.13;;
76604;SDS011;73179;50.978;16.998;2024-01-15T00:44:53;15.07;;;8.93;;
76604;SDS011;73179;50.978;16.998;2024-01-15T00:47:20;13.32;;;8.27;;
76604;SDS011;73179;50.978;16.998;2024-01-15T00:49:45;12.40;;;8.02;;
76604;SDS011;73179;50.978;16.998;2024-01-15T00:52:12;15.75;;;8.43;;
76604;SDS011;73179;50.978;16.998;2024-01-15T00:54:38;14.77;;;8.48;;
76604;SDS011;73179;50.978;16.998;2024-01-15T00:57:05;16.65;;;8.45;;
76604;SDS011;73179;50.978;16.998;2024-01-15T00:59:31;15.32;;;9.43;;
76604;SDS011;73179;50.978;16.998;2024-01-15T01:01:57;16.63;;;9.30;;
76604;SDS011;73179;50.978;16.998;2024-01-15T01:04:23;13.70;;;7.28;;
76604;SDS011;73179;50.978;16.998;2024-01-15T01:06:49;14.40;;;8.88;;
76604;SDS011;73179;50.978;16.998;2024-01-15T01:09:15;10.45;;;7.38;;
76604;SDS011;73179;50.978;16.998;2024-01-15T01:11:42;11.07;;;7.70;;
76604;SDS011;73179;50.978;16.998;2024-01-15T01:14:07;15.10;;;9.00;;
76604;SDS011;73179;50.978;16.998;2024-01-15T01:16:34;14.45;;;7.85;;
76604;SDS011;73179;50.978;16.998;2024-01-15T01:19:07;16.85;;;9.65;;
76604;SDS011;73179;50.978;16.998;2024-01-15T01:21:33;13.80;;;8.65;;
76604;SDS011;73179;50.978;16.998;2024-01-15T01:23:59;11.75;;;7.63;;
76604;SDS011;73179;50.978;16.998;2024-01-15T01:26:25;17.13;;;9.63;;
76604;SDS011;73179;50.978;16.998;2024-01-15T01:28:51;12.90;;;8.45;;
76604;SDS011;73179;50.978;16.998;2024-01-15T01:31:17;14.88;;;9.77;;
76604;SDS011;73179;50.978;16.998;2024-01-15T01:33:43;14.93;;;9.73;;
76604;SDS011;73179;50.978;16.998;2024-01-15T01:36:10;13.20;;;9.07;;
76604;SDS011;73179;50.978;16.998;2024-01-15T01:38:36;12.60;;;8.13;;
76604;SDS011;73179;50.978;16.998;2024-01-15T01:41:03;12.57;;;8.50;;
76604;SDS011;73179;50.978;16.998;2024-01-15T01:43:29;12.23;;;8.25;;
76604;SDS011;73179;50.978;16.998;2024-01-15T01:45:55;14.55;;;9.07;;
76604;SDS011;73179;50.978;16.998;2024-01-15T01:48:24;14.30;;;8.95;;
76604;SDS011;73179;50.978;16.998;2024-01-15T01:50:55;14.82;;;8.80;;
76604;SDS011;73179;50.978;16.998;2024-01-15T01:53:27;17.45;;;10.10;;
76604;SDS011;73179;50.978;16.998;2024-01-15T01:55:55;14.40;;;7.80;;
76604;SDS011;73179;50.978;16.998;2024-01-15T01:58:22;13.98;;;8.27;;
76604;SDS011;73179;50.978;16.998;2024-01-15T02:00:49;14.05;;;7.38;;
76604;SDS011;73179;50.978;16.998;2024-01-15T02:03:15;11.70;;;7.57;;
76604;SDS011;73179;50.978;16.998;2024-01-15T02:05:42;12.77;;;8.18;;
76604;SDS011;73179;50.978;16.998;2024-01-15T02:08:10;12.48;;;7.43;;
76604;SDS011;73179;50.978;16.998;2024-01-15T02:10:36;12.15;;;7.15;;
76604;SDS011;73179;50.978;16.998;2024-01-15T02:13:02;12.52;;;7.85;;
76604;SDS011;73179;50.978;16.998;2024-01-15T02:15:28;14.00;;;7.57;;
76604;SDS011;73179;50.978;16.998;2024-01-15T02:18:01;12.85;;;7.45;;
76604;SDS011;73179;50.978;16.998;2024-01-15T02:20:29;10.10;;;7.50;;
76604;SDS011;73179;50.978;16.998;2024-01-15T02:25:37;14.07;;;8.10;;
76604;SDS011;73179;50.978;16.998;2024-01-15T02:28:10;13.13;;;8.35;;
76604;SDS011;73179;50.978;16.998;2024-01-15T02:30:38;13.02;;;8.98;;
76604;SDS011;73179;50.978;16.998;2024-01-15T02:33:06;12.85;;;7.05;;
76604;SDS011;73179;50.978;16.998;2024-01-15T02:35:33;13.75;;;7.38;;
76604;SDS011;73179;50.978;16.998;2024-01-15T02:37:59;11.45;;;7.40;;
76604;SDS011;73179;50.978;16.998;2024-01-15T02:40:25;13.80;;;8.05;;
76604;SDS011;73179;50.978;16.998;2024-01-15T02:42:51;10.00;;;6.50;;
76604;SDS011;73179;50.978;16.998;2024-01-15T02:45:17;10.80;;;6.80;;
76604;SDS011;73179;50.978;16.998;2024-01-15T02:47:43;8.75;;;5.90;;
76604;SDS011;73179;50.978;16.998;2024-01-15T02:50:09;11.90;;;5.85;;
76604;SDS011;73179;50.978;16.998;2024-01-15T02:52:35;11.60;;;6.32;;
76604;SDS011;73179;50.978;16.998;2024-01-15T02:55:01;13.20;;;7.22;;
76604;SDS011;73179;50.978;16.998;2024-01-15T02:57:27;9.50;;;5.82;;
76604;SDS011;73179;50.978;16.998;2024-01-15T02:59:53;9.82;;;5.88;;
76604;SDS011;73179;50.978;16.998;2024-01-15T03:02:19;11.20;;;6.85;;
76604;SDS011;73179;50.978;16.998;2024-01-15T03:04:45;7.88;;;5.32;;
76604;SDS011;73179;50.978;16.998;2024-01-15T03:07:11;12.80;;;6.18;;
76604;SDS011;73179;50.978;16.998;2024-01-15T03:09:37;10.32;;;5.95;;
76604;SDS011;73179;50.978;16.998;2024-01-15T03:12:04;11.88;;;5.85;;
76604;SDS011;73179;50.978;16.998;2024-01-15T03:14:30;12.05;;;5.60;;
76604;SDS011;73179;50.978;16.998;2024-01-15T03:16:56;10.48;;;5.85;;
76604;SDS011;73179;50.978;16.998;2024-01-15T03:19:22;9.68;;;5.93;;
76604;SDS011;73179;50.978;16.998;2024-01-15T03:21:48;12.30;;;6.57;;
76604;SDS011;73179;50.978;16.998;2024-01-15T03:24:14;9.35;;;6.30;;
76604;SDS011;73179;50.978;16.998;2024-01-15T03:26:40;9.50;;;6.72;;
76604;SDS011;73179;50.978;16.998;2024-01-15T03:29:07;8.68;;;5.75;;
76604;SDS011;73179;50.978;16.998;2024-01-15T03:31:33;9.70;;;6.65;;
76604;SDS011;73179;50.978;16.998;2024-01-15T03:33:59;10.23;;;6.85;;
76604;SDS011;73179;50.978;16.998;2024-01-15T03:36:25;10.23;;;6.22;;
76604;SDS011;73179;50.978;16.998;2024-01-15T03:38:53;10.02;;;6.70;;
76604;SDS011;73179;50.978;16.998;2024-01-15T03:41:19;10.05;;;6.63;;
76604;SDS011;73179;50.978;16.998;2024-01-15T03:43:45;8.50;;;5.45;;
76604;SDS011;73179;50.978;16.998;2024-01-15T03:46:11;9.68;;;5.45;;
76604;SDS011;73179;50.978;16.998;2024-01-15T03:48:38;9.55;;;5.57;;
76604;SDS011;73179;50.978;16.998;2024-01-15T03:51:04;6.38;;;4.50;;
76604;SDS011;73179;50.978;16.998;2024-01-15T03:53:30;10.65;;;6.43;;
76604;SDS011;73179;50.978;16.998;2024-01-15T03:55:56;8.85;;;6.55;;
76604;SDS011;73179;50.978;16.998;2024-01-15T03:58:22;9.48;;;6.15;;
76604;SDS011;73179;50.978;16.998;2024-01-15T04:00:48;9.48;;;4.85;;
76604;SDS011;73179;50.978;16.998;2024-01-15T04:03:14;9.82;;;6.30;;
76604;SDS011;73179;50.978;16.998;2024-01-15T04:05:40;9.30;;;6.28;;
76604;SDS011;73179;50.978;16.998;2024-01-15T04:08:06;11.25;;;7.15;;
76604;SDS011;73179;50.978;16.998;2024-01-15T04:10:33;12.10;;;6.40;;
76604;SDS011;73179;50.978;16.998;2024-01-15T04:12:59;11.02;;;6.47;;
76604;SDS011;73179;50.978;16.998;2024-01-15T04:15:27;11.82;;;7.47;;
76604;SDS011;73179;50.978;16.998;2024-01-15T04:17:53;10.43;;;6.60;;
76604;SDS011;73179;50.978;16.998;2024-01-15T04:20:19;14.38;;;7.88;;
76604;SDS011;73179;50.978;16.998;2024-01-15T04:22:45;10.77;;;5.97;;
76604;SDS011;73179;50.978;16.998;2024-01-15T04:25:11;8.52;;;5.20;;
76604;SDS011;73179;50.978;16.998;2024-01-15T04:27:37;11.60;;;7.55;;
76604;SDS011;73179;50.978;16.998;2024-01-15T04:30:03;9.55;;;6.15;;
76604;SDS011;73179;50.978;16.998;2024-01-15T04:32:30;12.13;;;6.50;;
76604;SDS011;73179;50.978;16.998;2024-01-15T04:34:55;8.80;;;5.90;;
76604;SDS011;73179;50.978;16.998;2024-01-15T04:37:22;11.75;;;6.90;;
76604;SDS011;73179;50.978;16.998;2024-01-15T04:39:48;10.43;;;6.40;;
76604;SDS011;73179;50.978;16.998;2024-01-15T04:42:14;8.95;;;5.82;;
76604;SDS011;73179;50.978;16.998;2024-01-15T04:44:40;7.55;;;4.95;;
76604;SDS011;73179;50.978;16.998;2024-01-15T04:47:06;9.15;;;5.72;;
76604;SDS011;73179;50.978;16.998;2024-01-15T04:49:32;11.48;;;5.72;;
76604;SDS011;73179;50.978;16.998;2024-01-15T04:51:58;12.70;;;5.80;;
76604;SDS011;73179;50.978;16.998;2024-01-15T04:54:24;10.55;;;5.90;;
76604;SDS011;73179;50.978;16.998;2024-01-15T04:56:50;11.50;;;5.60;;
76604;SDS011;73179;50.978;16.998;2024-01-15T04:59:16;11.25;;;5.15;;
76604;SDS011;73179;50.978;16.998;2024-01-15T05:01:42;8.88;;;5.43;;
76604;SDS011;73179;50.978;16.998;2024-01-15T05:04:08;9.57;;;5.95;;
76604;SDS011;73179;50.978;16.998;2024-01-15T05:06:35;8.48;;;5.28;;
76604;SDS011;73179;50.978;16.998;2024-01-15T05:09:00;10.00;;;5.05;;
76604;SDS011;73179;50.978;16.998;2024-01-15T05:11:27;9.25;;;5.72;;
76604;SDS011;73179;50.978;16.998;2024-01-15T05:13:52;9.18;;;5.65;;
76604;SDS011;73179;50.978;16.998;2024-01-15T05:16:19;9.07;;;5.88;;
76604;SDS011;73179;50.978;16.998;2024-01-15T05:18:44;9.68;;;4.70;;
76604;SDS011;73179;50.978;16.998;2024-01-15T05:21:11;10.10;;;6.28;;
76604;SDS011;73179;50.978;16.998;2024-01-15T05:23:37;9.13;;;5.38;;
76604;SDS011;73179;50.978;16.998;2024-01-15T05:26:04;8.27;;;4.80;;
76604;SDS011;73179;50.978;16.998;2024-01-15T05:28:30;8.30;;;5.30;;
76604;SDS011;73179;50.978;16.998;2024-01-15T05:30:56;9.70;;;6.05;;
76604;SDS011;73179;50.978;16.998;2024-01-15T05:33:22;6.68;;;4.60;;
76604;SDS011;73179;50.978;16.998;2024-01-15T05:35:49;10.00;;;4.43;;
76604;SDS011;73179;50.978;16.998;2024-01-15T05:38:16;7.30;;;4.68;;
76604;SDS011;73179;50.978;16.998;2024-01-15T05:40:43;8.93;;;4.78;;
76604;SDS011;73179;50.978;16.998;2024-01-15T05:43:09;8.57;;;5.82;;
76604;SDS011;73179;50.978;16.998;2024-01-15T05:45:35;7.90;;;5.57;;
76604;SDS011;73179;50.978;16.998;2024-01-15T05:48:01;10.25;;;5.18;;
76604;SDS011;73179;50.978;16.998;2024-01-15T05:50:27;10.00;;;5.82;;
76604;SDS011;73179;50.978;16.998;2024-01-15T05:52:53;9.50;;;5.93;;
76604;SDS011;73179;50.978;16.998;2024-01-15T05:55:19;8.70;;;5.32;;
76604;SDS011;73179;50.978;16.998;2024-01-15T05:57:45;8.63;;;6.25;;
76604;SDS011;73179;50.978;16.998;2024-01-15T06:00:11;11.93;;;6.25;;
76604;SDS011;73179;50.978;16.998;2024-01-15T06:02:38;9.55;;;6.28;;
76604;SDS011;73179;50.978;16.998;2024-01-15T06:05:05;10.05;;;6.32;;
76604;SDS011;73179;50.978;16.998;2024-01-15T06:07:33;11.68;;;6.82;;
76604;SDS011;73179;50.978;16.998;2024-01-15T06:10:00;13.20;;;7.57;;
76604;SDS011;73179;50.978;16.998;2024-01-15T06:12:26;11.98;;;7.43;;
76604;SDS011;73179;50.978;16.998;2024-01-15T06:14:53;15.00;;;9.27;;
76604;SDS011;73179;50.978;16.998;2024-01-15T06:17:19;12.63;;;7.70;;
76604;SDS011;73179;50.978;16.998;2024-01-15T06:19:45;10.68;;;5.93;;
76604;SDS011;73179;50.978;16.998;2024-01-15T06:22:11;11.07;;;5.97;;
76604;SDS011;73179;50.978;16.998;2024-01-15T06:24:37;14.98;;;8.82;;
76604;SDS011;73179;50.978;16.998;2024-01-15T06:27:03;12.45;;;6.85;;
76604;SDS011;73179;50.978;16.998;2024-01-15T06:29:30;14.40;;;8.13;;
76604;SDS011;73179;50.978;16.998;2024-01-15T06:31:56;13.77;;;7.40;;
76604;SDS011;73179;50.978;16.998;2024-01-15T06:34:22;12.07;;;7.20;;
76604;SDS011;73179;50.978;16.998;2024-01-15T06:36:48;13.85;;;8.23;;
76604;SDS011;73179;50.978;16.998;2024-01-15T06:39:14;12.93;;;8.48;;
76604;SDS011;73179;50.978;16.998;2024-01-15T06:41:40;12.35;;;8.07;;
76604;SDS011;73179;50.978;16.998;2024-01-15T06:44:10;11.18;;;7.28;;
76604;SDS011;73179;50.978;16.998;2024-01-15T06:46:36;10.32;;;6.07;;
76604;SDS011;73179;50.978;16.998;2024-01-15T06:49:02;12.27;;;7.28;;
76604;SDS011;73179;50.978;16.998;2024-01-15T06:51:29;14.18;;;8.52;;
76604;SDS011;73179;50.978;16.998;2024-01-15T06:53:55;8.52;;;6.63;;
76604;SDS011;73179;50.978;16.998;2024-01-15T06:56:21;11.90;;;6.90;;
76604;SDS011;73179;50.978;16.998;2024-01-15T06:58:47;11.60;;;6.50;;
76604;SDS011;73179;50.978;16.998;2024-01-15T07:01:13;11.45;;;6.72;;
76604;SDS011;73179;50.978;16.998;2024-01-15T07:03:39;11.02;;;6.45;;
76604;SDS011;73179;50.978;16.998;2024-01-15T07:06:05;10.40;;;6.45;;
76604;SDS011;73179;50.978;16.998;2024-01-15T07:08:32;11.25;;;6.40;;
76604;SDS011;73179;50.978;16.998;2024-01-15T07:10:58;9.95;;;6.15;;
76604;SDS011;73179;50.978;16.998;2024-01-15T07:13:27;13.40;;;7.07;;
76604;SDS011;73179;50.978;16.998;2024-01-15T07:15:53;12.93;;;7.60;;
76604;SDS011;73179;50.978;16.998;2024-01-15T07:18:19;11.02;;;6.88;;
76604;SDS011;73179;50.978;16.998;2024-01-15T07:20:45;11.60;;;7.07;;
76604;SDS011;73179;50.978;16.998;2024-01-15T07:23:11;10.32;;;6.82;;
76604;SDS011;73179;50.978;16.998;2024-01-15T07:25:37;12.40;;;7.78;;
76604;SDS011;73179;50.978;16.998;2024-01-15T07:28:03;12.10;;;7.95;;
76604;SDS011;73179;50.978;16.998;2024-01-15T07:30:30;12.18;;;6.60;;
76604;SDS011;73179;50.978;16.998;2024-01-15T07:32:56;12.18;;;5.53;;
76604;SDS011;73179;50.978;16.998;2024-01-15T07:35:22;10.73;;;6.22;;
76604;SDS011;73179;50.978;16.998;2024-01-15T07:37:48;14.00;;;6.45;;
76604;SDS011;73179;50.978;16.998;2024-01-15T07:40:14;11.98;;;7.40;;
76604;SDS011;73179;50.978;16.998;2024-01-15T07:42:41;11.10;;;6.10;;
76604;SDS011;73179;50.978;16.998;2024-01-15T07:45:08;14.13;;;7.68;;
76604;SDS011;73179;50.978;16.998;2024-01-15T07:47:36;9.40;;;5.65;;
76604;SDS011;73179;50.978;16.998;2024-01-15T07:50:02;10.02;;;6.57;;
76604;SDS011;73179;50.978;16.998;2024-01-15T07:52:29;11.60;;;6.97;;
76604;SDS011;73179;50.978;16.998;2024-01-15T07:54:56;10.52;;;6.07;;
76604;SDS011;73179;50.978;16.998;2024-01-15T07:57:25;10.50;;;6.25;;
76604;SDS011;73179;50.978;16.998;2024-01-15T07:59:52;11.43;;;6.30;;
76604;SDS011;73179;50.978;16.998;2024-01-15T08:02:19;11.10;;;6.40;;
76604;SDS011;73179;50.978;16.998;2024-01-15T08:04:45;9.55;;;6.43;;
76604;SDS011;73179;50.978;16.998;2024-01-15T08:07:11;10.88;;;6.55;;
76604;SDS011;73179;50.978;16.998;2024-01-15T08:09:38;11.98;;;6.90;;
76604;SDS011;73179;50.978;16.998;2024-01-15T08:12:05;10.25;;;6.07;;
76604;SDS011;73179;50.978;16.998;2024-01-15T08:14:31;10.00;;;6.00;;
76604;SDS011;73179;50.978;16.998;2024-01-15T08:16:58;11.88;;;5.78;;
76604;SDS011;73179;50.978;16.998;2024-01-15T08:19:24;10.80;;;6.75;;
76604;SDS011;73179;50.978;16.998;2024-01-15T08:21:50;11.82;;;6.32;;
76604;SDS011;73179;50.978;16.998;2024-01-15T08:24:19;9.13;;;4.85;;
76604;SDS011;73179;50.978;16.998;2024-01-15T08:26:45;11.10;;;5.60;;
76604;SDS011;73179;50.978;16.998;2024-01-15T08:29:11;8.65;;;5.97;;
76604;SDS011;73179;50.978;16.998;2024-01-15T08:31:37;8.07;;;5.63;;
76604;SDS011;73179;50.978;16.998;2024-01-15T08:34:03;8.88;;;5.53;;
76604;SDS011;73179;50.978;16.998;2024-01-15T08:36:29;7.55;;;4.32;;
76604;SDS011;73179;50.978;16.998;2024-01-15T08:38:56;8.18;;;4.93;;
76604;SDS011;73179;50.978;16.998;2024-01-15T08:41:23;11.27;;;5.80;;
76604;SDS011;73179;50.978;16.998;2024-01-15T08:43:49;7.22;;;4.03;;
76604;SDS011;73179;50.978;16.998;2024-01-15T08:46:15;7.93;;;5.53;;
76604;SDS011;73179;50.978;16.998;2024-01-15T08:48:41;7.43;;;4.68;;
76604;SDS011;73179;50.978;16.998;2024-01-15T08:51:07;8.65;;;4.43;;
76604;SDS011;73179;50.978;16.998;2024-01-15T08:53:33;8.30;;;4.05;;
76604;SDS011;73179;50.978;16.998;2024-01-15T08:55:59;10.15;;;4.47;;
76604;SDS011;73179;50.978;16.998;2024-01-15T08:58:26;7.03;;;3.95;;
76604;SDS011;73179;50.978;16.998;2024-01-15T09:00:52;5.35;;;3.75;;
76604;SDS011;73179;50.978;16.998;2024-01-15T09:03:18;6.55;;;3.67;;
76604;SDS011;73179;50.978;16.998;2024-01-15T09:05:45;7.22;;;4.10;;
76604;SDS011;73179;50.978;16.998;2024-01-15T09:08:11;6.70;;;3.22;;
76604;SDS011;73179;50.978;16.998;2024-01-15T09:10:38;4.95;;;3.40;;
76604;SDS011;73179;50.978;16.998;2024-01-15T09:13:04;9.95;;;3.75;;
76604;SDS011;73179;50.978;16.998;2024-01-15T09:15:30;3.67;;;2.85;;
76604;SDS011;73179;50.978;16.998;2024-01-15T09:17:56;4.93;;;3.58;;
76604;SDS011;73179;50.978;16.998;2024-01-15T09:20:24;5.40;;;3.15;;
76604;SDS011;73179;50.978;16.998;2024-01-15T09:22:52;5.45;;;2.60;;
76604;SDS011;73179;50.978;16.998;2024-01-15T09:25:19;4.93;;;3.15;;
76604;SDS011;73179;50.978;16.998;2024-01-15T09:27:45;6.70;;;3.58;;
76604;SDS011;73179;50.978;16.998;2024-01-15T09:30:11;5.65;;;3.65;;
76604;SDS011;73179;50.978;16.998;2024-01-15T09:32:37;8.65;;;4.35;;
76604;SDS011;73179;50.978;16.998;2024-01-15T09:35:04;7.35;;;3.67;;
76604;SDS011;73179;50.978;16.998;2024-01-15T09:37:34;8.90;;;4.75;;
76604;SDS011;73179;50.978;16.998;2024-01-15T09:40:00;9.23;;;4.47;;
76604;SDS011;73179;50.978;16.998;2024-01-15T09:42:26;6.65;;;4.05;;
76604;SDS011;73179;50.978;16.998;2024-01-15T09:44:54;6.65;;;3.70;;
76604;SDS011;73179;50.978;16.998;2024-01-15T09:47:21;8.55;;;4.05;;
76604;SDS011;73179;50.978;16.998;2024-01-15T09:49:47;6.72;;;3.72;;
76604;SDS011;73179;50.978;16.998;2024-01-15T09:52:14;5.25;;;4.22;;
76604;SDS011;73179;50.978;16.998;2024-01-15T09:54:43;7.43;;;3.80;;
76604;SDS011;73179;50.978;16.998;2024-01-15T09:57:09;8.65;;;4.82;;
76604;SDS011;73179;50.978;16.998;2024-01-15T09:59:36;8.43;;;4.13;;
76604;SDS011;73179;50.978;16.998;2024-01-15T10:02:04;8.32;;;4.95;;
76604;SDS011;73179;50.978;16.998;2024-01-15T10:04:33;8.93;;;5.32;;
76604;SDS011;73179;50.978;16.998;2024-01-15T10:06:59;9.80;;;4.38;;
76604;SDS011;73179;50.978;16.998;2024-01-15T10:09:27;6.68;;;4.25;;
76604;SDS011;73179;50.978;16.998;2024-01-15T10:11:53;8.75;;;4.40;;
76604;SDS011;73179;50.978;16.998;2024-01-15T10:14:19;8.65;;;4.55;;
76604;SDS011;73179;50.978;16.998;2024-01-15T10:16:45;9.10;;;4.88;;
76604;SDS011;73179;50.978;16.998;2024-01-15T10:19:12;7.72;;;4.72;;
76604;SDS011;73179;50.978;16.998;2024-01-15T10:21:37;8.55;;;4.90;;
76604;SDS011;73179;50.978;16.998;2024-01-15T10:24:04;8.40;;;4.40;;
76604;SDS011;73179;50.978;16.998;2024-01-15T10:26:31;6.75;;;4.15;;
76604;SDS011;73179;50.978;16.998;2024-01-15T10:28:58;8.95;;;5.22;;
76604;SDS011;73179;50.978;16.998;2024-01-15T10:31:27;6.75;;;4.38;;
76604;SDS011;73179;50.978;16.998;2024-01-15T10:33:54;7.57;;;4.32;;
76604;SDS011;73179;50.978;16.998;2024-01-15T10:36:34;7.50;;;4.40;;
76604;SDS011;73179;50.978;16.998;2024-01-15T10:39:01;8.13;;;4.32;;
76604;SDS011;73179;50.978;16.998;2024-01-15T10:41:27;7.72;;;4.68;;
76604;SDS011;73179;50.978;16.998;2024-01-15T10:43:53;6.82;;;5.10;;
76604;SDS011;73179;50.978;16.998;2024-01-15T10:46:19;9.70;;;4.50;;
76604;SDS011;73179;50.978;16.998;2024-01-15T10:48:45;10.32;;;4.85;;
76604;SDS011;73179;50.978;16.998;2024-01-15T10:51:11;9.10;;;4.45;;
76604;SDS011;73179;50.978;16.998;2024-01-15T10:53:39;7.43;;;4.68;;
76604;SDS011;73179;50.978;16.998;2024-01-15T10:56:06;9.05;;;4.07;;
76604;SDS011;73179;50.978;16.998;2024-01-15T10:58:33;12.32;;;5.32;;
76604;SDS011;73179;50.978;16.998;2024-01-15T11:00:59;7.28;;;4.20;;
76604;SDS011;73179;50.978;16.998;2024-01-15T11:03:27;8.32;;;4.65;;
76604;SDS011;73179;50.978;16.998;2024-01-15T11:05:54;10.88;;;4.28;;
76604;SDS011;73179;50.978;16.998;2024-01-15T11:08:21;6.82;;;4.32;;
76604;SDS011;73179;50.978;16.998;2024-01-15T11:10:48;8.82;;;4.32;;
76604;SDS011;73179;50.978;16.998;2024-01-15T11:16:00;8.23;;;4.60;;
76604;SDS011;73179;50.978;16.998;2024-01-15T11:18:28;7.00;;;3.95;;
76604;SDS011;73179;50.978;16.998;2024-01-15T11:32:00;6.85;;;3.88;;
76604;SDS011;73179;50.978;16.998;2024-01-15T11:37:20;7.18;;;4.00;;
76604;SDS011;73179;50.978;16.998;2024-01-15T11:39:47;6.80;;;3.97;;
76604;SDS011;73179;50.978;16.998;2024-01-15T11:42:13;6.22;;;3.83;;
76604;SDS011;73179;50.978;16.998;2024-01-15T11:44:40;12.05;;;4.20;;
76604;SDS011;73179;50.978;16.998;2024-01-15T11:47:07;9.07;;;3.90;;
76604;SDS011;73179;50.978;16.998;2024-01-15T11:52:25;6.60;;;3.13;;
76604;SDS011;73179;50.978;16.998;2024-01-15T11:57:47;8.32;;;3.58;;
76604;SDS011;73179;50.978;16.998;2024-01-15T12:00:16;9.02;;;4.38;;
76604;SDS011;73179;50.978;16.998;2024-01-15T12:02:43;4.78;;;3.22;;
76604;SDS011;73179;50.978;16.998;2024-01-15T12:05:11;6.20;;;4.07;;
76604;SDS011;73179;50.978;16.998;2024-01-15T12:07:42;4.90;;;2.95;;
76604;SDS011;73179;50.978;16.998;2024-01-15T12:10:13;4.65;;;2.85;;
76604;SDS011;73179;50.978;16.998;2024-01-15T12:15:31;8.05;;;3.58;;
76604;SDS011;73179;50.978;16.998;2024-01-15T12:17:58;7.43;;;3.45;;
76604;SDS011;73179;50.978;16.998;2024-01-15T12:20:26;7.03;;;3.70;;
76604;SDS011;73179;50.978;16.998;2024-01-15T12:22:53;7.55;;;3.42;;
76604;SDS011;73179;50.978;16.998;2024-01-15T12:25:21;5.85;;;3.15;;
76604;SDS011;73179;50.978;16.998;2024-01-15T12:27:48;7.28;;;4.13;;
76604;SDS011;73179;50.978;16.998;2024-01-15T12:30:14;7.53;;;4.43;;
76604;SDS011;73179;50.978;16.998;2024-01-15T12:32:41;8.93;;;4.38;;
76604;SDS011;73179;50.978;16.998;2024-01-15T12:35:08;7.18;;;3.65;;
76604;SDS011;73179;50.978;16.998;2024-01-15T12:37:37;11.00;;;5.00;;
76604;SDS011;73179;50.978;16.998;2024-01-15T12:40:06;9.75;;;3.95;;
76604;SDS011;73179;50.978;16.998;2024-01-15T12:42:33;8.85;;;4.55;;
76604;SDS011;73179;50.978;16.998;2024-01-15T12:45:00;9.10;;;4.18;;
76604;SDS011;73179;50.978;16.998;2024-01-15T12:47:26;8.60;;;4.65;;
76604;SDS011;73179;50.978;16.998;2024-01-15T12:49:53;7.78;;;4.10;;
76604;SDS011;73179;50.978;16.998;2024-01-15T12:52:20;11.55;;;5.07;;
76604;SDS011;73179;50.978;16.998;2024-01-15T12:54:48;6.47;;;3.75;;
76604;SDS011;73179;50.978;16.998;2024-01-15T12:57:16;9.60;;;4.68;;
76604;SDS011;73179;50.978;16.998;2024-01-15T12:59:43;9.27;;;5.05;;
76604;SDS011;73179;50.978;16.998;2024-01-15T13:02:13;13.23;;;4.78;;
76604;SDS011;73179;50.978;16.998;2024-01-15T13:04:40;8.93;;;5.00;;
76604;SDS011;73179;50.978;16.998;2024-01-15T13:07:06;10.20;;;5.68;;
76604;SDS011;73179;50.978;16.998;2024-01-15T13:09:33;8.93;;;4.57;;
76604;SDS011;73179;50.978;16.998;2024-01-15T13:12:00;7.88;;;5.00;;
76604;SDS011;73179;50.978;16.998;2024-01-15T13:14:27;9.95;;;5.57;;
76604;SDS011;73179;50.978;16.998;2024-01-15T13:16:53;8.68;;;5.13;;
76604;SDS011;73179;50.978;16.998;2024-01-15T13:19:20;9.95;;;4.72;;
76604;SDS011;73179;50.978;16.998;2024-01-15T13:21:49;10.00;;;5.15;;
76604;SDS011;73179;50.978;16.998;2024-01-15T13:24:21;9.82;;;5.47;;
76604;SDS011;73179;50.978;16.998;2024-01-15T13:26:48;11.35;;;6.03;;
76604;SDS011;73179;50.978;16.998;2024-01-15T13:29:14;11.30;;;5.63;;
76604;SDS011;73179;50.978;16.998;2024-01-15T13:31:40;10.40;;;5.10;;
76604;SDS011;73179;50.978;16.998;2024-01-15T13:34:07;7.72;;;4.50;;
76604;SDS011;73179;50.978;16.998;2024-01-15T13:36:32;9.50;;;4.95;;
76604;SDS011;73179;50.978;16.998;2024-01-15T13:38:59;10.15;;;5.28;;
76604;SDS011;73179;50.978;16.998;2024-01-15T13:41:24;8.77;;;5.53;;
76604;SDS011;73179;50.978;16.998;2024-01-15T13:43:54;8.95;;;5.82;;
76604;SDS011;73179;50.978;16.998;2024-01-15T13:46:22;13.32;;;5.78;;
76604;SDS011;73179;50.978;16.998;2024-01-15T13:48:50;7.25;;;4.47;;
76604;SDS011;73179;50.978;16.998;2024-01-15T13:51:16;9.57;;;5.43;;
76604;SDS011;73179;50.978;16.998;2024-01-15T13:53:43;11.68;;;5.60;;
76604;SDS011;73179;50.978;16.998;2024-01-15T13:56:09;9.63;;;4.75;;
76604;SDS011;73179;50.978;16.998;2024-01-15T13:58:38;9.88;;;4.25;;
76604;SDS011;73179;50.978;16.998;2024-01-15T14:01:04;8.30;;;5.03;;
76604;SDS011;73179;50.978;16.998;2024-01-15T14:03:32;11.43;;;5.85;;
76604;SDS011;73179;50.978;16.998;2024-01-15T14:05:58;9.68;;;5.72;;
76604;SDS011;73179;50.978;16.998;2024-01-15T14:08:25;10.35;;;5.47;;
76604;SDS011;73179;50.978;16.998;2024-01-15T14:10:51;7.25;;;4.90;;
76604;SDS011;73179;50.978;16.998;2024-01-15T14:13:18;11.98;;;6.32;;
76604;SDS011;73179;50.978;16.998;2024-01-15T14:15:43;8.98;;;5.05;;
76604;SDS011;73179;50.978;16.998;2024-01-15T14:18:10;8.27;;;5.15;;
76604;SDS011;73179;50.978;16.998;2024-01-15T14:20:36;10.10;;;5.85;;
76604;SDS011;73179;50.978;16.998;2024-01-15T14:23:03;11.88;;;5.55;;
76604;SDS011;73179;50.978;16.998;2024-01-15T14:25:29;12.82;;;5.75;;
76604;SDS011;73179;50.978;16.998;2024-01-15T14:27:55;9.68;;;4.93;;
76604;SDS011;73179;50.978;16.998;2024-01-15T14:30:21;6.93;;;4.15;;
76604;SDS011;73179;50.978;16.998;2024-01-15T14:32:47;8.27;;;4.45;;
76604;SDS011;73179;50.978;16.998;2024-01-15T14:35:13;8.20;;;3.97;;
76604;SDS011;73179;50.978;16.998;2024-01-15T14:37:40;10.85;;;5.35;;
76604;SDS011;73179;50.978;16.998;2024-01-15T14:40:06;10.60;;;4.90;;
76604;SDS011;73179;50.978;16.998;2024-01-15T14:42:33;8.98;;;5.45;;
76604;SDS011;73179;50.978;16.998;2024-01-15T14:45:00;7.70;;;4.72;;
76604;SDS011;73179;50.978;16.998;2024-01-15T14:47:28;7.70;;;4.55;;
76604;SDS011;73179;50.978;16.998;2024-01-15T14:49:54;9.73;;;4.97;;
76604;SDS011;73179;50.978;16.998;2024-01-15T14:52:23;14.75;;;6.47;;